Chicago, Illinois
Traffic Map
Current Weather Conditions
Chicago, Illinois
Scattered Clouds
Scattered Clouds
32°
Feels Like: 36°
Wind Chill: 32° Ceiling: Unl
Heat Index: 36° Visibility: 10mi
Dew Point: 22° Wind: 15mph
Humidity: 57% Direction: 210° (SSW)
Pressure: 29.96in Gusts: 22mph
Raw Report DataKMDW 221851Z 21013G19KT 10SM FEW070 SCT200 32/22 A2996 RMK AO2 SLP133 T03170222
Traffic Incident Summary
Active as of:
Severity:
Category:
InformationThere was an issue retrieving the traffic information for this location. Please try a different location or try again shortly.
Advertisements
Track Severe Weather on mobile